Main page
METAR-TAF:

METAR-TAF

Airports :

Oil platform

K14-fa-1c, Netherlands

latitude: 53-16-10N, longitude: 3-37-40E, elevation: 28 m

Current weather observation

The report was made 28 minutes ago, at 21:55 UTC
Wind 15 kt from the Northwest, varying between West and North
Temperature 5°C
Humidity 70%
Pressure 1020 hPa
Visibility 10 km or more
Few clouds at a height of 1700 ft
Scattered clouds at a height of 2900 ft

METAR: EHKV 112155Z AUTO 32015KT 260V360 9999 FEW017 SCT029 05/M00 Q1020

Time: 00:23 (22:23 UTC)


TAF: missing

Weather observations and forecasts of more than 4000 airports (METAR and TAF reports).

The available stations are represented by yellow and red dots on the map.

Hover mouse over dot to see the name of the station.

Then click to see weather observations and forecasts.

To change the map : click on the green buttons with a black cross to zoom in, on the green button with a dash to zoom out, or on the green arrows for adjacent maps.


METAR-TAF: